sensor_id;sensor_type;location;lat;lon;timestamp;P1;durP1;ratioP1;P2;durP2;ratioP2
24799;SDS011;12897;50.812;4.430;2023-01-08T00:00:14;15.03;;;3.80;;
24799;SDS011;12897;50.812;4.430;2023-01-08T00:02:42;8.38;;;3.60;;
24799;SDS011;12897;50.812;4.430;2023-01-08T00:05:10;6.87;;;3.27;;
24799;SDS011;12897;50.812;4.430;2023-01-08T00:07:38;10.10;;;3.17;;
24799;SDS011;12897;50.812;4.430;2023-01-08T00:10:05;9.08;;;3.05;;
24799;SDS011;12897;50.812;4.430;2023-01-08T00:12:33;10.65;;;3.75;;
24799;SDS011;12897;50.812;4.430;2023-01-08T00:15:00;10.10;;;3.50;;
24799;SDS011;12897;50.812;4.430;2023-01-08T00:17:29;8.68;;;3.55;;
24799;SDS011;12897;50.812;4.430;2023-01-08T00:19:56;8.85;;;3.05;;
24799;SDS011;12897;50.812;4.430;2023-01-08T00:22:24;9.68;;;3.22;;
24799;SDS011;12897;50.812;4.430;2023-01-08T00:24:51;9.40;;;3.50;;
24799;SDS011;12897;50.812;4.430;2023-01-08T00:27:19;6.85;;;2.85;;
24799;SDS011;12897;50.812;4.430;2023-01-08T00:29:46;7.80;;;2.65;;
24799;SDS011;12897;50.812;4.430;2023-01-08T00:32:14;6.75;;;1.50;;
24799;SDS011;12897;50.812;4.430;2023-01-08T00:34:41;4.47;;;1.35;;
24799;SDS011;12897;50.812;4.430;2023-01-08T00:37:09;6.00;;;1.17;;
24799;SDS011;12897;50.812;4.430;2023-01-08T00:39:37;6.80;;;1.10;;
24799;SDS011;12897;50.812;4.430;2023-01-08T00:42:04;6.08;;;1.37;;
24799;SDS011;12897;50.812;4.430;2023-01-08T00:44:31;8.00;;;1.35;;
24799;SDS011;12897;50.812;4.430;2023-01-08T00:46:59;7.60;;;1.17;;
24799;SDS011;12897;50.812;4.430;2023-01-08T00:49:26;11.73;;;1.50;;
24799;SDS011;12897;50.812;4.430;2023-01-08T00:51:54;5.65;;;1.20;;
24799;SDS011;12897;50.812;4.430;2023-01-08T00:54:22;5.78;;;1.30;;
24799;SDS011;12897;50.812;4.430;2023-01-08T00:56:49;5.78;;;1.10;;
24799;SDS011;12897;50.812;4.430;2023-01-08T00:59:17;4.05;;;0.98;;
24799;SDS011;12897;50.812;4.430;2023-01-08T01:01:45;6.72;;;1.20;;
24799;SDS011;12897;50.812;4.430;2023-01-08T01:04:13;2.95;;;1.30;;
24799;SDS011;12897;50.812;4.430;2023-01-08T01:06:41;7.15;;;1.40;;
24799;SDS011;12897;50.812;4.430;2023-01-08T01:09:08;9.35;;;1.70;;
24799;SDS011;12897;50.812;4.430;2023-01-08T01:11:37;6.42;;;1.60;;
24799;SDS011;12897;50.812;4.430;2023-01-08T01:14:04;9.15;;;1.47;;
24799;SDS011;12897;50.812;4.430;2023-01-08T01:16:32;9.70;;;1.47;;
24799;SDS011;12897;50.812;4.430;2023-01-08T01:19:01;7.17;;;1.30;;
24799;SDS011;12897;50.812;4.430;2023-01-08T01:21:29;6.25;;;1.37;;
24799;SDS011;12897;50.812;4.430;2023-01-08T01:24:00;7.33;;;1.57;;
24799;SDS011;12897;50.812;4.430;2023-01-08T01:26:28;10.65;;;1.82;;
24799;SDS011;12897;50.812;4.430;2023-01-08T01:28:57;5.55;;;1.42;;
24799;SDS011;12897;50.812;4.430;2023-01-08T01:31:25;6.83;;;1.77;;
24799;SDS011;12897;50.812;4.430;2023-01-08T01:33:54;8.40;;;1.52;;
24799;SDS011;12897;50.812;4.430;2023-01-08T01:36:23;6.45;;;1.40;;
24799;SDS011;12897;50.812;4.430;2023-01-08T01:38:52;7.60;;;1.85;;
24799;SDS011;12897;50.812;4.430;2023-01-08T01:41:25;9.78;;;2.42;;
24799;SDS011;12897;50.812;4.430;2023-01-08T01:43:51;6.50;;;1.40;;
24799;SDS011;12897;50.812;4.430;2023-01-08T01:46:22;7.37;;;1.72;;
24799;SDS011;12897;50.812;4.430;2023-01-08T01:49:07;9.40;;;2.25;;
24799;SDS011;12897;50.812;4.430;2023-01-08T01:51:40;7.15;;;1.72;;
24799;SDS011;12897;50.812;4.430;2023-01-08T01:54:10;6.08;;;2.08;;
24799;SDS011;12897;50.812;4.430;2023-01-08T01:56:38;9.95;;;2.02;;
24799;SDS011;12897;50.812;4.430;2023-01-08T01:59:06;11.15;;;2.40;;
24799;SDS011;12897;50.812;4.430;2023-01-08T02:01:34;12.45;;;2.00;;
24799;SDS011;12897;50.812;4.430;2023-01-08T02:04:04;8.95;;;2.05;;
24799;SDS011;12897;50.812;4.430;2023-01-08T02:06:36;6.47;;;1.92;;
24799;SDS011;12897;50.812;4.430;2023-01-08T02:09:16;9.73;;;1.90;;
24799;SDS011;12897;50.812;4.430;2023-01-08T02:14:25;4.90;;;1.82;;
24799;SDS011;12897;50.812;4.430;2023-01-08T02:16:54;9.00;;;2.27;;
24799;SDS011;12897;50.812;4.430;2023-01-08T02:19:29;12.45;;;2.02;;
24799;SDS011;12897;50.812;4.430;2023-01-08T02:25:10;10.75;;;2.50;;
24799;SDS011;12897;50.812;4.430;2023-01-08T02:27:43;12.93;;;2.33;;
24799;SDS011;12897;50.812;4.430;2023-01-08T02:32:40;9.58;;;2.45;;
24799;SDS011;12897;50.812;4.430;2023-01-08T02:35:09;7.40;;;2.20;;
24799;SDS011;12897;50.812;4.430;2023-01-08T02:37:37;12.63;;;2.72;;
24799;SDS011;12897;50.812;4.430;2023-01-08T02:40:25;7.92;;;2.70;;
24799;SDS011;12897;50.812;4.430;2023-01-08T02:42:58;13.20;;;2.62;;
24799;SDS011;12897;50.812;4.430;2023-01-08T02:45:38;13.80;;;2.80;;
24799;SDS011;12897;50.812;4.430;2023-01-08T02:48:21;14.43;;;3.10;;
24799;SDS011;12897;50.812;4.430;2023-01-08T02:51:03;9.63;;;3.12;;
24799;SDS011;12897;50.812;4.430;2023-01-08T02:53:32;10.78;;;3.50;;
24799;SDS011;12897;50.812;4.430;2023-01-08T02:56:03;10.72;;;3.52;;
24799;SDS011;12897;50.812;4.430;2023-01-08T02:58:33;13.58;;;3.70;;
24799;SDS011;12897;50.812;4.430;2023-01-08T03:01:05;11.95;;;3.20;;
24799;SDS011;12897;50.812;4.430;2023-01-08T03:03:34;10.50;;;2.92;;
24799;SDS011;12897;50.812;4.430;2023-01-08T03:06:06;11.22;;;2.22;;
24799;SDS011;12897;50.812;4.430;2023-01-08T03:08:37;7.62;;;2.20;;
24799;SDS011;12897;50.812;4.430;2023-01-08T03:11:08;6.30;;;1.82;;
24799;SDS011;12897;50.812;4.430;2023-01-08T03:16:18;5.60;;;1.80;;
24799;SDS011;12897;50.812;4.430;2023-01-08T03:18:56;6.08;;;1.55;;
24799;SDS011;12897;50.812;4.430;2023-01-08T03:21:21;9.38;;;1.82;;
24799;SDS011;12897;50.812;4.430;2023-01-08T03:23:49;6.00;;;1.90;;
24799;SDS011;12897;50.812;4.430;2023-01-08T03:26:18;11.75;;;2.10;;
24799;SDS011;12897;50.812;4.430;2023-01-08T03:28:49;8.23;;;1.77;;
24799;SDS011;12897;50.812;4.430;2023-01-08T03:31:18;5.75;;;1.50;;
24799;SDS011;12897;50.812;4.430;2023-01-08T03:33:48;7.27;;;1.47;;
24799;SDS011;12897;50.812;4.430;2023-01-08T03:36:17;10.30;;;1.75;;
24799;SDS011;12897;50.812;4.430;2023-01-08T03:38:48;6.85;;;1.82;;
24799;SDS011;12897;50.812;4.430;2023-01-08T03:41:18;9.85;;;1.87;;
24799;SDS011;12897;50.812;4.430;2023-01-08T03:46:15;7.03;;;1.57;;
24799;SDS011;12897;50.812;4.430;2023-01-08T03:48:44;11.43;;;1.60;;
24799;SDS011;12897;50.812;4.430;2023-01-08T03:51:14;10.40;;;1.57;;
24799;SDS011;12897;50.812;4.430;2023-01-08T03:53:43;9.18;;;1.75;;
24799;SDS011;12897;50.812;4.430;2023-01-08T03:56:12;11.90;;;1.62;;
24799;SDS011;12897;50.812;4.430;2023-01-08T03:58:39;10.18;;;1.35;;
24799;SDS011;12897;50.812;4.430;2023-01-08T04:01:07;11.53;;;1.75;;
24799;SDS011;12897;50.812;4.430;2023-01-08T04:03:35;8.30;;;1.45;;
24799;SDS011;12897;50.812;4.430;2023-01-08T04:06:02;12.35;;;2.08;;
24799;SDS011;12897;50.812;4.430;2023-01-08T04:08:30;12.03;;;1.85;;
24799;SDS011;12897;50.812;4.430;2023-01-08T04:10:58;12.88;;;1.70;;
24799;SDS011;12897;50.812;4.430;2023-01-08T04:13:25;12.80;;;2.10;;
24799;SDS011;12897;50.812;4.430;2023-01-08T04:15:53;13.30;;;1.90;;
24799;SDS011;12897;50.812;4.430;2023-01-08T04:18:20;19.50;;;2.67;;
24799;SDS011;12897;50.812;4.430;2023-01-08T04:20:48;12.43;;;2.08;;
24799;SDS011;12897;50.812;4.430;2023-01-08T04:23:16;19.35;;;2.00;;
24799;SDS011;12897;50.812;4.430;2023-01-08T04:25:44;13.18;;;1.80;;
24799;SDS011;12897;50.812;4.430;2023-01-08T04:28:11;9.85;;;1.70;;
24799;SDS011;12897;50.812;4.430;2023-01-08T04:30:39;18.48;;;1.90;;
24799;SDS011;12897;50.812;4.430;2023-01-08T04:33:06;12.37;;;1.82;;
24799;SDS011;12897;50.812;4.430;2023-01-08T04:35:34;12.90;;;1.70;;
24799;SDS011;12897;50.812;4.430;2023-01-08T04:38:01;10.03;;;2.02;;
24799;SDS011;12897;50.812;4.430;2023-01-08T04:40:31;13.43;;;2.60;;
24799;SDS011;12897;50.812;4.430;2023-01-08T04:42:59;10.78;;;2.42;;
24799;SDS011;12897;50.812;4.430;2023-01-08T04:45:27;12.37;;;3.00;;
24799;SDS011;12897;50.812;4.430;2023-01-08T04:47:58;14.25;;;3.20;;
24799;SDS011;12897;50.812;4.430;2023-01-08T04:50:25;17.73;;;3.80;;
24799;SDS011;12897;50.812;4.430;2023-01-08T04:52:53;18.40;;;3.62;;
24799;SDS011;12897;50.812;4.430;2023-01-08T04:55:21;18.12;;;3.95;;
24799;SDS011;12897;50.812;4.430;2023-01-08T04:57:48;21.50;;;4.83;;
24799;SDS011;12897;50.812;4.430;2023-01-08T05:00:16;16.67;;;4.20;;
24799;SDS011;12897;50.812;4.430;2023-01-08T05:02:43;13.90;;;4.17;;
24799;SDS011;12897;50.812;4.430;2023-01-08T05:05:11;13.60;;;4.70;;
24799;SDS011;12897;50.812;4.430;2023-01-08T05:07:38;16.82;;;4.87;;
24799;SDS011;12897;50.812;4.430;2023-01-08T05:10:06;23.40;;;4.58;;
24799;SDS011;12897;50.812;4.430;2023-01-08T05:12:35;15.00;;;4.35;;
24799;SDS011;12897;50.812;4.430;2023-01-08T05:15:03;21.85;;;5.03;;
24799;SDS011;12897;50.812;4.430;2023-01-08T05:17:30;24.60;;;5.30;;
24799;SDS011;12897;50.812;4.430;2023-01-08T05:19:58;19.02;;;5.08;;
24799;SDS011;12897;50.812;4.430;2023-01-08T05:22:25;19.42;;;5.60;;
24799;SDS011;12897;50.812;4.430;2023-01-08T05:24:54;21.65;;;6.42;;
24799;SDS011;12897;50.812;4.430;2023-01-08T05:27:21;18.40;;;5.40;;
24799;SDS011;12897;50.812;4.430;2023-01-08T05:29:49;19.57;;;5.83;;
24799;SDS011;12897;50.812;4.430;2023-01-08T05:32:17;20.32;;;5.42;;
24799;SDS011;12897;50.812;4.430;2023-01-08T05:34:45;23.15;;;5.12;;
24799;SDS011;12897;50.812;4.430;2023-01-08T05:37:12;23.47;;;5.72;;
24799;SDS011;12897;50.812;4.430;2023-01-08T05:39:40;15.58;;;5.08;;
24799;SDS011;12897;50.812;4.430;2023-01-08T05:42:07;14.93;;;4.00;;
24799;SDS011;12897;50.812;4.430;2023-01-08T05:44:35;24.77;;;4.08;;
24799;SDS011;12897;50.812;4.430;2023-01-08T05:47:02;12.68;;;3.27;;
24799;SDS011;12897;50.812;4.430;2023-01-08T05:49:30;19.85;;;3.58;;
24799;SDS011;12897;50.812;4.430;2023-01-08T05:51:57;15.38;;;3.00;;
24799;SDS011;12897;50.812;4.430;2023-01-08T05:54:24;15.03;;;2.75;;
24799;SDS011;12897;50.812;4.430;2023-01-08T05:56:52;16.73;;;2.67;;
24799;SDS011;12897;50.812;4.430;2023-01-08T05:59:20;13.75;;;2.80;;
24799;SDS011;12897;50.812;4.430;2023-01-08T06:01:47;16.77;;;2.87;;
24799;SDS011;12897;50.812;4.430;2023-01-08T06:04:15;20.15;;;3.17;;
24799;SDS011;12897;50.812;4.430;2023-01-08T06:06:42;16.45;;;2.30;;
24799;SDS011;12897;50.812;4.430;2023-01-08T06:09:10;18.35;;;2.17;;
24799;SDS011;12897;50.812;4.430;2023-01-08T06:11:38;11.60;;;1.87;;
24799;SDS011;12897;50.812;4.430;2023-01-08T06:14:06;17.77;;;2.70;;
24799;SDS011;12897;50.812;4.430;2023-01-08T06:16:33;14.83;;;2.35;;
24799;SDS011;12897;50.812;4.430;2023-01-08T06:19:01;19.42;;;2.30;;
24799;SDS011;12897;50.812;4.430;2023-01-08T06:21:28;20.60;;;2.12;;
24799;SDS011;12897;50.812;4.430;2023-01-08T06:23:56;14.20;;;1.92;;
24799;SDS011;12897;50.812;4.430;2023-01-08T06:26:24;16.40;;;1.82;;
24799;SDS011;12897;50.812;4.430;2023-01-08T06:28:51;10.43;;;1.87;;
24799;SDS011;12897;50.812;4.430;2023-01-08T06:31:19;20.37;;;2.47;;
24799;SDS011;12897;50.812;4.430;2023-01-08T06:33:46;19.75;;;2.58;;
24799;SDS011;12897;50.812;4.430;2023-01-08T06:36:13;18.77;;;1.85;;
24799;SDS011;12897;50.812;4.430;2023-01-08T06:38:41;13.30;;;2.45;;
24799;SDS011;12897;50.812;4.430;2023-01-08T06:41:09;17.67;;;2.55;;
24799;SDS011;12897;50.812;4.430;2023-01-08T06:43:37;16.85;;;2.05;;
24799;SDS011;12897;50.812;4.430;2023-01-08T06:46:05;13.15;;;2.40;;
24799;SDS011;12897;50.812;4.430;2023-01-08T06:48:34;18.83;;;2.50;;
24799;SDS011;12897;50.812;4.430;2023-01-08T06:51:03;15.30;;;2.02;;
24799;SDS011;12897;50.812;4.430;2023-01-08T06:53:31;15.23;;;1.82;;
24799;SDS011;12897;50.812;4.430;2023-01-08T06:55:58;19.35;;;2.25;;
24799;SDS011;12897;50.812;4.430;2023-01-08T06:58:27;17.50;;;1.98;;
24799;SDS011;12897;50.812;4.430;2023-01-08T07:00:55;21.25;;;2.85;;
24799;SDS011;12897;50.812;4.430;2023-01-08T07:03:23;17.65;;;2.42;;
24799;SDS011;12897;50.812;4.430;2023-01-08T07:05:51;13.98;;;2.12;;
24799;SDS011;12897;50.812;4.430;2023-01-08T07:08:18;12.37;;;2.10;;
24799;SDS011;12897;50.812;4.430;2023-01-08T07:10:46;11.18;;;2.20;;
24799;SDS011;12897;50.812;4.430;2023-01-08T07:13:13;21.97;;;2.55;;
24799;SDS011;12897;50.812;4.430;2023-01-08T07:15:41;19.42;;;2.65;;
24799;SDS011;12897;50.812;4.430;2023-01-08T07:18:09;16.42;;;2.35;;
24799;SDS011;12897;50.812;4.430;2023-01-08T07:20:38;14.30;;;3.60;;
24799;SDS011;12897;50.812;4.430;2023-01-08T07:23:07;13.90;;;1.98;;
24799;SDS011;12897;50.812;4.430;2023-01-08T07:25:35;18.85;;;2.65;;
24799;SDS011;12897;50.812;4.430;2023-01-08T07:28:03;20.85;;;2.85;;
24799;SDS011;12897;50.812;4.430;2023-01-08T07:30:31;15.18;;;2.27;;
24799;SDS011;12897;50.812;4.430;2023-01-08T07:32:59;16.30;;;2.27;;
24799;SDS011;12897;50.812;4.430;2023-01-08T07:35:27;15.63;;;2.27;;
24799;SDS011;12897;50.812;4.430;2023-01-08T07:37:55;16.67;;;2.37;;
24799;SDS011;12897;50.812;4.430;2023-01-08T07:40:23;18.12;;;2.37;;
24799;SDS011;12897;50.812;4.430;2023-01-08T07:42:58;14.53;;;2.52;;
24799;SDS011;12897;50.812;4.430;2023-01-08T07:45:26;17.42;;;2.50;;
24799;SDS011;12897;50.812;4.430;2023-01-08T07:47:58;19.35;;;2.87;;
24799;SDS011;12897;50.812;4.430;2023-01-08T07:50:26;17.55;;;2.65;;
24799;SDS011;12897;50.812;4.430;2023-01-08T07:52:57;15.45;;;2.20;;
24799;SDS011;12897;50.812;4.430;2023-01-08T07:55:26;12.70;;;2.27;;
24799;SDS011;12897;50.812;4.430;2023-01-08T07:57:54;13.25;;;2.60;;
24799;SDS011;12897;50.812;4.430;2023-01-08T08:00:22;18.57;;;2.65;;
24799;SDS011;12897;50.812;4.430;2023-01-08T08:02:49;18.42;;;2.33;;
24799;SDS011;12897;50.812;4.430;2023-01-08T08:05:17;11.40;;;2.62;;
24799;SDS011;12897;50.812;4.430;2023-01-08T08:07:44;13.68;;;2.60;;
24799;SDS011;12897;50.812;4.430;2023-01-08T08:10:12;22.67;;;2.70;;
24799;SDS011;12897;50.812;4.430;2023-01-08T08:12:40;16.52;;;2.62;;
24799;SDS011;12897;50.812;4.430;2023-01-08T08:15:10;11.48;;;2.40;;
24799;SDS011;12897;50.812;4.430;2023-01-08T08:17:37;19.57;;;2.58;;
24799;SDS011;12897;50.812;4.430;2023-01-08T08:20:05;13.60;;;2.60;;
24799;SDS011;12897;50.812;4.430;2023-01-08T08:22:34;15.50;;;2.87;;
24799;SDS011;12897;50.812;4.430;2023-01-08T08:25:01;14.47;;;2.80;;
24799;SDS011;12897;50.812;4.430;2023-01-08T08:27:29;10.35;;;1.75;;
24799;SDS011;12897;50.812;4.430;2023-01-08T08:29:57;13.18;;;2.52;;
24799;SDS011;12897;50.812;4.430;2023-01-08T08:32:25;11.65;;;3.00;;
24799;SDS011;12897;50.812;4.430;2023-01-08T08:34:53;13.90;;;2.47;;
24799;SDS011;12897;50.812;4.430;2023-01-08T08:37:20;13.03;;;2.40;;
24799;SDS011;12897;50.812;4.430;2023-01-08T08:39:48;9.25;;;2.10;;
24799;SDS011;12897;50.812;4.430;2023-01-08T08:42:16;12.23;;;2.62;;
24799;SDS011;12897;50.812;4.430;2023-01-08T08:44:44;10.35;;;2.27;;
24799;SDS011;12897;50.812;4.430;2023-01-08T08:47:12;7.47;;;2.20;;
24799;SDS011;12897;50.812;4.430;2023-01-08T08:49:40;9.90;;;2.35;;
24799;SDS011;12897;50.812;4.430;2023-01-08T08:52:07;7.85;;;1.87;;
24799;SDS011;12897;50.812;4.430;2023-01-08T08:54:35;6.85;;;1.52;;
24799;SDS011;12897;50.812;4.430;2023-01-08T08:57:05;7.73;;;1.67;;
24799;SDS011;12897;50.812;4.430;2023-01-08T08:59:34;7.30;;;1.40;;
24799;SDS011;12897;50.812;4.430;2023-01-08T09:02:02;4.53;;;1.20;;
24799;SDS011;12897;50.812;4.430;2023-01-08T09:04:32;6.92;;;1.42;;
24799;SDS011;12897;50.812;4.430;2023-01-08T09:07:00;3.42;;;0.88;;
24799;SDS011;12897;50.812;4.430;2023-01-08T09:09:28;3.95;;;1.07;;
24799;SDS011;12897;50.812;4.430;2023-01-08T09:11:55;2.15;;;1.05;;
24799;SDS011;12897;50.812;4.430;2023-01-08T09:14:23;3.30;;;1.40;;
24799;SDS011;12897;50.812;4.430;2023-01-08T09:16:50;2.85;;;1.22;;
24799;SDS011;12897;50.812;4.430;2023-01-08T09:19:18;2.27;;;1.42;;
24799;SDS011;12897;50.812;4.430;2023-01-08T09:21:48;3.62;;;1.05;;
24799;SDS011;12897;50.812;4.430;2023-01-08T09:24:15;1.57;;;0.82;;
24799;SDS011;12897;50.812;4.430;2023-01-08T09:26:43;3.10;;;0.90;;
24799;SDS011;12897;50.812;4.430;2023-01-08T09:29:11;2.00;;;0.80;;
24799;SDS011;12897;50.812;4.430;2023-01-08T09:31:38;1.67;;;0.80;;
24799;SDS011;12897;50.812;4.430;2023-01-08T09:34:06;2.75;;;0.62;;
24799;SDS011;12897;50.812;4.430;2023-01-08T09:36:33;2.12;;;0.70;;
24799;SDS011;12897;50.812;4.430;2023-01-08T09:39:01;2.85;;;0.70;;
24799;SDS011;12897;50.812;4.430;2023-01-08T09:41:32;0.65;;;0.60;;
24799;SDS011;12897;50.812;4.430;2023-01-08T09:44:02;2.85;;;1.10;;
24799;SDS011;12897;50.812;4.430;2023-01-08T09:46:32;4.42;;;0.95;;
24799;SDS011;12897;50.812;4.430;2023-01-08T09:49:03;1.57;;;0.90;;
24799;SDS011;12897;50.812;4.430;2023-01-08T09:51:36;3.65;;;1.15;;
24799;SDS011;12897;50.812;4.430;2023-01-08T09:54:04;1.95;;;0.80;;
24799;SDS011;12897;50.812;4.430;2023-01-08T09:56:32;4.85;;;1.15;;
24799;SDS011;12897;50.812;4.430;2023-01-08T09:59:01;3.52;;;1.20;;
24799;SDS011;12897;50.812;4.430;2023-01-08T10:01:33;3.70;;;1.20;;
24799;SDS011;12897;50.812;4.430;2023-01-08T10:04:04;5.97;;;1.25;;
24799;SDS011;12897;50.812;4.430;2023-01-08T10:06:34;5.53;;;1.15;;
24799;SDS011;12897;50.812;4.430;2023-01-08T10:09:01;2.77;;;0.82;;
24799;SDS011;12897;50.812;4.430;2023-01-08T10:11:33;4.58;;;1.15;;
24799;SDS011;12897;50.812;4.430;2023-01-08T10:14:02;8.25;;;1.20;;
24799;SDS011;12897;50.812;4.430;2023-01-08T10:16:32;5.53;;;1.20;;
24799;SDS011;12897;50.812;4.430;2023-01-08T10:19:03;4.55;;;1.15;;
24799;SDS011;12897;50.812;4.430;2023-01-08T10:21:32;5.87;;;1.40;;
24799;SDS011;12897;50.812;4.430;2023-01-08T10:24:04;9.55;;;1.90;;
24799;SDS011;12897;50.812;4.430;2023-01-08T10:26:33;4.70;;;1.37;;
24799;SDS011;12897;50.812;4.430;2023-01-08T10:29:11;5.30;;;1.40;;
24799;SDS011;12897;50.812;4.430;2023-01-08T10:34:23;8.05;;;3.10;;
24799;SDS011;12897;50.812;4.430;2023-01-08T10:36:51;8.78;;;1.62;;
24799;SDS011;12897;50.812;4.430;2023-01-08T10:39:25;7.53;;;1.40;;
24799;SDS011;12897;50.812;4.430;2023-01-08T10:41:52;8.00;;;1.30;;
24799;SDS011;12897;50.812;4.430;2023-01-08T10:44:22;6.20;;;1.50;;
24799;SDS011;12897;50.812;4.430;2023-01-08T10:46:56;12.10;;;2.15;;
24799;SDS011;12897;50.812;4.430;2023-01-08T10:49:26;6.42;;;1.47;;
24799;SDS011;12897;50.812;4.430;2023-01-08T10:52:04;6.37;;;1.42;;
24799;SDS011;12897;50.812;4.430;2023-01-08T10:54:35;9.43;;;1.47;;
24799;SDS011;12897;50.812;4.430;2023-01-08T11:02:34;8.85;;;1.70;;
24799;SDS011;12897;50.812;4.430;2023-01-08T11:05:04;7.92;;;1.27;;
24799;SDS011;12897;50.812;4.430;2023-01-08T11:07:36;7.67;;;1.57;;
24799;SDS011;12897;50.812;4.430;2023-01-08T11:10:05;9.38;;;1.82;;
24799;SDS011;12897;50.812;4.430;2023-01-08T11:12:35;8.95;;;1.30;;
24799;SDS011;12897;50.812;4.430;2023-01-08T11:15:06;8.30;;;1.62;;
24799;SDS011;12897;50.812;4.430;2023-01-08T11:17:43;9.80;;;1.60;;
24799;SDS011;12897;50.812;4.430;2023-01-08T11:20:29;8.95;;;1.72;;
24799;SDS011;12897;50.812;4.430;2023-01-08T11:23:14;4.78;;;1.57;;
24799;SDS011;12897;50.812;4.430;2023-01-08T11:36:35;9.13;;;1.30;;
24799;SDS011;12897;50.812;4.430;2023-01-08T11:39:04;8.35;;;1.62;;
24799;SDS011;12897;50.812;4.430;2023-01-08T11:47:13;6.97;;;1.62;;
24799;SDS011;12897;50.812;4.430;2023-01-08T11:52:38;8.08;;;1.90;;
24799;SDS011;12897;50.812;4.430;2023-01-08T11:57:43;7.28;;;1.80;;
24799;SDS011;12897;50.812;4.430;2023-01-08T12:08:53;5.90;;;1.55;;
24799;SDS011;12897;50.812;4.430;2023-01-08T12:11:24;15.15;;;2.12;;
24799;SDS011;12897;50.812;4.430;2023-01-08T12:16:53;6.50;;;1.47;;
24799;SDS011;12897;50.812;4.430;2023-01-08T12:19:41;8.90;;;1.42;;
24799;SDS011;12897;50.812;4.430;2023-01-08T12:32:53;8.05;;;1.42;;
24799;SDS011;12897;50.812;4.430;2023-01-08T12:35:24;7.15;;;1.45;;
24799;SDS011;12897;50.812;4.430;2023-01-08T12:43:35;10.30;;;1.67;;
24799;SDS011;12897;50.812;4.430;2023-01-08T12:46:03;8.05;;;1.50;;
24799;SDS011;12897;50.812;4.430;2023-01-08T12:48:33;6.63;;;1.43;;
24799;SDS011;12897;50.812;4.430;2023-01-08T12:56:25;9.45;;;1.70;;
24799;SDS011;12897;50.812;4.430;2023-01-08T12:59:03;11.35;;;1.62;;
24799;SDS011;12897;50.812;4.430;2023-01-08T13:01:34;7.60;;;1.70;;
24799;SDS011;12897;50.812;4.430;2023-01-08T13:04:08;9.48;;;1.90;;
24799;SDS011;12897;50.812;4.430;2023-01-08T13:06:36;9.27;;;2.00;;
24799;SDS011;12897;50.812;4.430;2023-01-08T13:09:06;13.85;;;2.22;;
24799;SDS011;12897;50.812;4.430;2023-01-08T13:11:35;12.30;;;2.08;;
24799;SDS011;12897;50.812;4.430;2023-01-08T13:14:09;6.97;;;1.60;;
24799;SDS011;12897;50.812;4.430;2023-01-08T13:16:39;8.53;;;1.85;;
24799;SDS011;12897;50.812;4.430;2023-01-08T13:19:24;8.80;;;1.77;;
24799;SDS011;12897;50.812;4.430;2023-01-08T13:21:56;5.58;;;1.50;;
24799;SDS011;12897;50.812;4.430;2023-01-08T13:24:38;7.33;;;1.70;;
24799;SDS011;12897;50.812;4.430;2023-01-08T13:27:19;12.15;;;1.87;;
24799;SDS011;12897;50.812;4.430;2023-01-08T13:29:45;11.97;;;1.62;;
24799;SDS011;12897;50.812;4.430;2023-01-08T13:32:26;8.03;;;1.82;;
24799;SDS011;12897;50.812;4.430;2023-01-08T13:37:49;8.08;;;1.60;;
24799;SDS011;12897;50.812;4.430;2023-01-08T13:40:35;11.35;;;1.75;;
24799;SDS011;12897;50.812;4.430;2023-01-08T13:43:14;8.60;;;2.22;;
24799;SDS011;12897;50.812;4.430;2023-01-08T13:51:05;9.78;;;1.75;;
24799;SDS011;12897;50.812;4.430;2023-01-08T13:53:34;5.95;;;1.47;;
24799;SDS011;12897;50.812;4.430;2023-01-08T13:56:06;13.72;;;1.62;;
24799;SDS011;12897;50.812;4.430;2023-01-08T13:58:37;13.38;;;1.95;;
24799;SDS011;12897;50.812;4.430;2023-01-08T14:01:05;6.05;;;1.70;;
24799;SDS011;12897;50.812;4.430;2023-01-08T14:03:35;9.40;;;1.75;;
24799;SDS011;12897;50.812;4.430;2023-01-08T14:06:17;6.33;;;1.50;;
24799;SDS011;12897;50.812;4.430;2023-01-08T14:08:53;6.83;;;1.45;;
24799;SDS011;12897;50.812;4.430;2023-01-08T14:11:27;7.60;;;1.35;;
24799;SDS011;12897;50.812;4.430;2023-01-08T14:13:55;8.20;;;1.80;;
24799;SDS011;12897;50.812;4.430;2023-01-08T14:16:23;8.43;;;1.67;;
24799;SDS011;12897;50.812;4.430;2023-01-08T14:18:51;16.25;;;1.98;;
24799;SDS011;12897;50.812;4.430;2023-01-08T14:21:21;13.28;;;1.98;;
24799;SDS011;12897;50.812;4.430;2023-01-08T14:23:49;11.22;;;1.60;;
24799;SDS011;12897;50.812;4.430;2023-01-08T14:28:52;6.40;;;1.85;;
24799;SDS011;12897;50.812;4.430;2023-01-08T14:31:21;9.10;;;1.50;;
24799;SDS011;12897;50.812;4.430;2023-01-08T14:33:51;9.10;;;2.05;;
24799;SDS011;12897;50.812;4.430;2023-01-08T14:36:24;10.08;;;1.77;;
24799;SDS011;12897;50.812;4.430;2023-01-08T14:38:52;11.73;;;1.70;;
24799;SDS011;12897;50.812;4.430;2023-01-08T14:41:31;12.63;;;1.95;;
24799;SDS011;12897;50.812;4.430;2023-01-08T14:44:17;8.83;;;1.67;;
24799;SDS011;12897;50.812;4.430;2023-01-08T14:46:46;12.18;;;1.50;;
24799;SDS011;12897;50.812;4.430;2023-01-08T14:49:17;10.48;;;2.08;;
24799;SDS011;12897;50.812;4.430;2023-01-08T14:51:50;8.40;;;1.27;;
24799;SDS011;12897;50.812;4.430;2023-01-08T14:54:22;10.25;;;2.00;;
24799;SDS011;12897;50.812;4.430;2023-01-08T14:56:52;10.85;;;1.80;;
24799;SDS011;12897;50.812;4.430;2023-01-08T14:59:24;7.87;;;1.22;;
24799;SDS011;12897;50.812;4.430;2023-01-08T15:02:02;9.45;;;1.72;;
24799;SDS011;12897;50.812;4.430;2023-01-08T15:04:31;8.93;;;1.90;;
24799;SDS011;12897;50.812;4.430;2023-01-08T15:07:15;8.55;;;1.75;;
24799;SDS011;12897;50.812;4.430;2023-01-08T15:09:35;13.43;;;2.20;;
24799;SDS011;12897;50.812;4.430;2023-01-08T15:12:20;14.28;;;1.95;;
24799;SDS011;12897;50.812;4.430;2023-01-08T15:14:33;8.60;;;1.92;;
24799;SDS011;12897;50.812;4.430;2023-01-08T15:17:11;7.28;;;2.02;;
24799;SDS011;12897;50.812;4.430;2023-01-08T15:19:50;10.93;;;2.30;;
24799;SDS011;12897;50.812;4.430;2023-01-08T15:22:24;16.05;;;2.40;;
24799;SDS011;12897;50.812;4.430;2023-01-08T15:24:57;9.38;;;2.35;;
24799;SDS011;12897;50.812;4.430;2023-01-08T15:27:32;19.83;;;3.30;;
24799;SDS011;12897;50.812;4.430;2023-01-08T15:30:02;11.03;;;2.50;;
24799;SDS011;12897;50.812;4.430;2023-01-08T15:32:32;12.85;;;2.80;;
24799;SDS011;12897;50.812;4.430;2023-01-08T15:35:14;13.53;;;2.22;;
24799;SDS011;12897;50.812;4.430;2023-01-08T15:37:43;11.45;;;2.10;;
24799;SDS011;12897;50.812;4.430;2023-01-08T15:40:11;12.58;;;2.83;;
24799;SDS011;12897;50.812;4.430;2023-01-08T15:42:38;10.10;;;2.47;;
24799;SDS011;12897;50.812;4.430;2023-01-08T15:45:25;11.63;;;2.35;;
24799;SDS011;12897;50.812;4.430;2023-01-08T15:47:54;14.28;;;2.50;;
24799;SDS011;12897;50.812;4.430;2023-01-08T15:50:22;9.75;;;2.20;;
24799;SDS011;12897;50.812;4.430;2023-01-08T15:52:51;10.43;;;2.00;;
24799;SDS011;12897;50.812;4.430;2023-01-08T15:55:21;11.97;;;2.22;;
24799;SDS011;12897;50.812;4.430;2023-01-08T15:57:50;11.68;;;1.90;;
24799;SDS011;12897;50.812;4.430;2023-01-08T16:00:18;10.60;;;2.22;;
24799;SDS011;12897;50.812;4.430;2023-01-08T16:02:48;10.55;;;1.98;;
24799;SDS011;12897;50.812;4.430;2023-01-08T16:05:17;9.33;;;1.95;;
24799;SDS011;12897;50.812;4.430;2023-01-08T16:07:46;7.55;;;2.20;;
24799;SDS011;12897;50.812;4.430;2023-01-08T16:10:14;14.25;;;2.15;;
24799;SDS011;12897;50.812;4.430;2023-01-08T16:12:42;13.55;;;2.47;;
24799;SDS011;12897;50.812;4.430;2023-01-08T16:15:10;9.33;;;1.95;;
24799;SDS011;12897;50.812;4.430;2023-01-08T16:17:39;9.48;;;2.00;;
24799;SDS011;12897;50.812;4.430;2023-01-08T16:20:07;13.60;;;2.27;;
24799;SDS011;12897;50.812;4.430;2023-01-08T16:22:36;12.73;;;1.95;;